CheckWX is a tool to help pilots better visualize weather data.  It is not intended as a substitute for an official pre-flight weather briefing.

14:10:04 UTC

KCVO METAR
Corvallis Municipal Airport
Corvallis, Oregon, USA
Current

14 mins ago

KCVO 271356Z AUTO 29003KT 10SM CLR M01/M01 A3046 RMK AO2 SLP317 T10061011 FZRANO
Observed
Feb-27 @ 13:56 UTC
Wind
  • 290° at 3 KTS
Visibility
10 SM
Flight Rules
VFR
Cloud Levels
  • Clear skies
Temperature
-1°C / 30°F
Dewpoint
-1°C / 30°F
Humidity
100%
Altimeter
30.46" Hg
Pressure
1031.52 hPa
Previous

1 hour ago

KCVO 271256Z AUTO 00000KT 10SM CLR 01/00 A3047 RMK AO2 SLP320 T00060000 FZRANO
Observed
Feb-27 @ 12:56 UTC
Visibility
10 SM
Flight Rules
VFR
Cloud Levels
  • Clear skies
Temperature
C / 34°F
Dewpoint
C / 32°F
Humidity
93%
Altimeter
30.47" Hg
Pressure
1031.82 hPa
Previous

2 hours ago

KCVO 271156Z AUTO 26004KT 10SM CLR 01/01 A3047 RMK AO2 SLP320 T00110011 10056 20006 58006 FZRANO
Observed
Feb-27 @ 11:56 UTC
Wind
  • 260° at 4 KTS
Visibility
10 SM
Flight Rules
VFR
Cloud Levels
  • Clear skies
Temperature
C / 34°F
Dewpoint
C / 34°F
Humidity
100%
Altimeter
30.47" Hg
Pressure
1031.82 hPa